sensor_id;sensor_type;location;lat;lon;timestamp;temperature;humidity
8043;DHT22;4064;48.132;11.366;2024-03-22T00:00:39;5.60;99.90
8043;DHT22;4064;48.132;11.366;2024-03-22T00:03:05;5.60;99.90
8043;DHT22;4064;48.132;11.366;2024-03-22T00:05:30;5.70;99.90
8043;DHT22;4064;48.132;11.366;2024-03-22T00:07:56;5.60;99.90
8043;DHT22;4064;48.132;11.366;2024-03-22T00:10:21;5.70;99.90
8043;DHT22;4064;48.132;11.366;2024-03-22T00:12:49;5.60;99.90
8043;DHT22;4064;48.132;11.366;2024-03-22T00:15:14;5.70;99.90
8043;DHT22;4064;48.132;11.366;2024-03-22T00:17:40;5.60;99.90
8043;DHT22;4064;48.132;11.366;2024-03-22T00:20:06;5.60;99.90
8043;DHT22;4064;48.132;11.366;2024-03-22T00:22:32;5.70;99.90
8043;DHT22;4064;48.132;11.366;2024-03-22T00:24:58;5.70;99.90
8043;DHT22;4064;48.132;11.366;2024-03-22T00:27:23;5.50;99.90
8043;DHT22;4064;48.132;11.366;2024-03-22T00:29:49;5.50;99.90
8043;DHT22;4064;48.132;11.366;2024-03-22T00:32:14;5.50;99.90
8043;DHT22;4064;48.132;11.366;2024-03-22T00:34:41;5.60;99.90
8043;DHT22;4064;48.132;11.366;2024-03-22T00:37:06;5.50;99.90
8043;DHT22;4064;48.132;11.366;2024-03-22T00:39:32;5.50;99.90
8043;DHT22;4064;48.132;11.366;2024-03-22T00:41:57;5.50;99.90
8043;DHT22;4064;48.132;11.366;2024-03-22T00:44:23;5.60;99.90
8043;DHT22;4064;48.132;11.366;2024-03-22T00:46:49;5.60;99.90
8043;DHT22;4064;48.132;11.366;2024-03-22T00:49:14;5.50;99.90
8043;DHT22;4064;48.132;11.366;2024-03-22T00:51:40;5.50;99.90
8043;DHT22;4064;48.132;11.366;2024-03-22T00:54:08;5.40;99.90
8043;DHT22;4064;48.132;11.366;2024-03-22T00:56:34;5.50;99.90
8043;DHT22;4064;48.132;11.366;2024-03-22T00:58:59;5.50;99.90
8043;DHT22;4064;48.132;11.366;2024-03-22T01:01:25;5.40;99.90
8043;DHT22;4064;48.132;11.366;2024-03-22T01:03:50;5.50;99.90
8043;DHT22;4064;48.132;11.366;2024-03-22T01:06:16;5.30;99.90
8043;DHT22;4064;48.132;11.366;2024-03-22T01:08:42;5.40;99.90
8043;DHT22;4064;48.132;11.366;2024-03-22T01:11:08;5.30;99.90
8043;DHT22;4064;48.132;11.366;2024-03-22T01:13:33;5.30;99.90
8043;DHT22;4064;48.132;11.366;2024-03-22T01:15:59;5.20;99.90
8043;DHT22;4064;48.132;11.366;2024-03-22T01:18:24;5.20;99.90
8043;DHT22;4064;48.132;11.366;2024-03-22T01:20:50;5.20;99.90
8043;DHT22;4064;48.132;11.366;2024-03-22T01:23:16;5.30;99.90
8043;DHT22;4064;48.132;11.366;2024-03-22T01:25:41;5.40;99.90
8043;DHT22;4064;48.132;11.366;2024-03-22T01:28:07;5.40;99.90
8043;DHT22;4064;48.132;11.366;2024-03-22T01:30:32;5.40;99.90
8043;DHT22;4064;48.132;11.366;2024-03-22T01:32:59;5.40;99.90
8043;DHT22;4064;48.132;11.366;2024-03-22T01:35:25;5.30;99.90
8043;DHT22;4064;48.132;11.366;2024-03-22T01:37:50;5.20;99.90
8043;DHT22;4064;48.132;11.366;2024-03-22T01:40:16;5.20;99.90
8043;DHT22;4064;48.132;11.366;2024-03-22T01:42:42;5.20;99.90
8043;DHT22;4064;48.132;11.366;2024-03-22T01:45:07;5.20;99.90
8043;DHT22;4064;48.132;11.366;2024-03-22T01:47:33;5.20;99.90
8043;DHT22;4064;48.132;11.366;2024-03-22T01:50:00;5.20;99.90
8043;DHT22;4064;48.132;11.366;2024-03-22T01:52:27;5.30;99.90
8043;DHT22;4064;48.132;11.366;2024-03-22T01:54:52;5.30;99.90
8043;DHT22;4064;48.132;11.366;2024-03-22T01:57:18;5.20;99.90
8043;DHT22;4064;48.132;11.366;2024-03-22T01:59:46;5.30;99.90
8043;DHT22;4064;48.132;11.366;2024-03-22T02:02:13;5.20;99.90
8043;DHT22;4064;48.132;11.366;2024-03-22T02:04:39;5.10;99.90
8043;DHT22;4064;48.132;11.366;2024-03-22T02:07:04;5.20;99.90
8043;DHT22;4064;48.132;11.366;2024-03-22T02:09:30;5.10;99.90
8043;DHT22;4064;48.132;11.366;2024-03-22T02:11:56;5.00;99.90
8043;DHT22;4064;48.132;11.366;2024-03-22T02:14:21;5.00;99.90
8043;DHT22;4064;48.132;11.366;2024-03-22T02:16:47;5.00;99.90
8043;DHT22;4064;48.132;11.366;2024-03-22T02:19:12;4.90;99.90
8043;DHT22;4064;48.132;11.366;2024-03-22T02:21:38;4.90;99.90
8043;DHT22;4064;48.132;11.366;2024-03-22T02:24:04;5.00;99.90
8043;DHT22;4064;48.132;11.366;2024-03-22T02:26:29;5.10;99.90
8043;DHT22;4064;48.132;11.366;2024-03-22T02:28:55;5.00;99.90
8043;DHT22;4064;48.132;11.366;2024-03-22T02:31:21;4.90;99.90
8043;DHT22;4064;48.132;11.366;2024-03-22T02:33:46;5.00;99.90
8043;DHT22;4064;48.132;11.366;2024-03-22T02:36:12;4.90;99.90
8043;DHT22;4064;48.132;11.366;2024-03-22T02:38:37;4.80;99.90
8043;DHT22;4064;48.132;11.366;2024-03-22T02:41:03;4.80;99.90
8043;DHT22;4064;48.132;11.366;2024-03-22T02:43:29;4.90;99.90
8043;DHT22;4064;48.132;11.366;2024-03-22T02:45:54;4.90;99.90
8043;DHT22;4064;48.132;11.366;2024-03-22T02:48:20;4.80;99.90
8043;DHT22;4064;48.132;11.366;2024-03-22T02:50:46;4.80;99.90
8043;DHT22;4064;48.132;11.366;2024-03-22T02:53:11;4.70;99.90
8043;DHT22;4064;48.132;11.366;2024-03-22T02:55:38;4.80;99.90
8043;DHT22;4064;48.132;11.366;2024-03-22T02:58:05;4.70;99.90
8043;DHT22;4064;48.132;11.366;2024-03-22T03:00:31;4.60;99.90
8043;DHT22;4064;48.132;11.366;2024-03-22T03:02:57;4.80;99.90
8043;DHT22;4064;48.132;11.366;2024-03-22T03:05:22;4.80;99.90
8043;DHT22;4064;48.132;11.366;2024-03-22T03:07:49;4.80;99.90
8043;DHT22;4064;48.132;11.366;2024-03-22T03:10:16;4.80;99.90
8043;DHT22;4064;48.132;11.366;2024-03-22T03:12:41;4.70;99.90
8043;DHT22;4064;48.132;11.366;2024-03-22T03:15:07;4.60;99.90
8043;DHT22;4064;48.132;11.366;2024-03-22T03:17:33;4.60;99.90
8043;DHT22;4064;48.132;11.366;2024-03-22T03:19:58;4.60;99.90
8043;DHT22;4064;48.132;11.366;2024-03-22T03:22:24;4.50;99.90
8043;DHT22;4064;48.132;11.366;2024-03-22T03:24:50;4.50;99.90
8043;DHT22;4064;48.132;11.366;2024-03-22T03:27:15;4.50;99.90
8043;DHT22;4064;48.132;11.366;2024-03-22T03:29:41;4.60;99.90
8043;DHT22;4064;48.132;11.366;2024-03-22T03:32:06;4.60;99.90
8043;DHT22;4064;48.132;11.366;2024-03-22T03:34:32;4.60;99.90
8043;DHT22;4064;48.132;11.366;2024-03-22T03:36:57;4.40;99.90
8043;DHT22;4064;48.132;11.366;2024-03-22T03:39:26;4.50;99.90
8043;DHT22;4064;48.132;11.366;2024-03-22T03:41:52;4.60;99.90
8043;DHT22;4064;48.132;11.366;2024-03-22T03:44:17;4.50;99.90
8043;DHT22;4064;48.132;11.366;2024-03-22T03:46:43;4.50;99.90
8043;DHT22;4064;48.132;11.366;2024-03-22T03:49:08;4.40;99.90
8043;DHT22;4064;48.132;11.366;2024-03-22T03:51:34;4.30;99.90
8043;DHT22;4064;48.132;11.366;2024-03-22T03:53:59;4.40;99.90
8043;DHT22;4064;48.132;11.366;2024-03-22T03:56:25;4.30;99.90
8043;DHT22;4064;48.132;11.366;2024-03-22T03:58:50;4.30;99.90
8043;DHT22;4064;48.132;11.366;2024-03-22T04:01:16;4.30;99.90
8043;DHT22;4064;48.132;11.366;2024-03-22T04:03:43;4.30;99.90
8043;DHT22;4064;48.132;11.366;2024-03-22T04:06:09;4.30;99.90
8043;DHT22;4064;48.132;11.366;2024-03-22T04:08:34;4.40;99.90
8043;DHT22;4064;48.132;11.366;2024-03-22T04:11:00;4.30;99.90
8043;DHT22;4064;48.132;11.366;2024-03-22T04:13:26;4.30;99.90
8043;DHT22;4064;48.132;11.366;2024-03-22T04:15:53;4.30;99.90
8043;DHT22;4064;48.132;11.366;2024-03-22T04:18:18;4.30;99.90
8043;DHT22;4064;48.132;11.366;2024-03-22T04:20:53;4.10;99.90
8043;DHT22;4064;48.132;11.366;2024-03-22T04:23:20;4.10;99.90
8043;DHT22;4064;48.132;11.366;2024-03-22T04:25:59;4.20;99.90
8043;DHT22;4064;48.132;11.366;2024-03-22T04:28:25;4.20;99.90
8043;DHT22;4064;48.132;11.366;2024-03-22T04:31:05;4.20;99.90
8043;DHT22;4064;48.132;11.366;2024-03-22T04:33:31;4.20;99.90
8043;DHT22;4064;48.132;11.366;2024-03-22T04:35:58;4.20;99.90
8043;DHT22;4064;48.132;11.366;2024-03-22T04:38:25;4.10;99.90
8043;DHT22;4064;48.132;11.366;2024-03-22T04:40:51;4.10;99.90
8043;DHT22;4064;48.132;11.366;2024-03-22T04:43:17;4.30;99.90
8043;DHT22;4064;48.132;11.366;2024-03-22T04:45:43;4.30;99.90
8043;DHT22;4064;48.132;11.366;2024-03-22T04:48:12;4.30;99.90
8043;DHT22;4064;48.132;11.366;2024-03-22T04:50:38;4.20;99.90
8043;DHT22;4064;48.132;11.366;2024-03-22T04:53:04;4.30;99.90
8043;DHT22;4064;48.132;11.366;2024-03-22T04:55:30;4.30;99.90
8043;DHT22;4064;48.132;11.366;2024-03-22T04:57:56;4.40;99.90
8043;DHT22;4064;48.132;11.366;2024-03-22T05:00:21;4.40;99.90
8043;DHT22;4064;48.132;11.366;2024-03-22T05:02:47;4.40;99.90
8043;DHT22;4064;48.132;11.366;2024-03-22T05:05:13;4.50;99.90
8043;DHT22;4064;48.132;11.366;2024-03-22T05:07:39;4.50;99.90
8043;DHT22;4064;48.132;11.366;2024-03-22T05:10:04;4.60;99.90
8043;DHT22;4064;48.132;11.366;2024-03-22T05:12:31;4.70;99.90
8043;DHT22;4064;48.132;11.366;2024-03-22T05:14:56;4.80;99.90
8043;DHT22;4064;48.132;11.366;2024-03-22T05:17:22;4.90;99.90
8043;DHT22;4064;48.132;11.366;2024-03-22T05:19:47;4.80;99.90
8043;DHT22;4064;48.132;11.366;2024-03-22T05:22:13;4.90;99.90
8043;DHT22;4064;48.132;11.366;2024-03-22T05:24:39;5.00;99.90
8043;DHT22;4064;48.132;11.366;2024-03-22T05:27:04;5.10;99.90
8043;DHT22;4064;48.132;11.366;2024-03-22T05:29:30;5.10;99.90
8043;DHT22;4064;48.132;11.366;2024-03-22T05:31:55;5.10;99.90
8043;DHT22;4064;48.132;11.366;2024-03-22T05:34:22;5.20;99.90
8043;DHT22;4064;48.132;11.366;2024-03-22T05:36:48;5.30;99.90
8043;DHT22;4064;48.132;11.366;2024-03-22T05:39:14;5.30;99.90
8043;DHT22;4064;48.132;11.366;2024-03-22T05:41:40;5.30;99.90
8043;DHT22;4064;48.132;11.366;2024-03-22T05:44:07;5.50;99.90
8043;DHT22;4064;48.132;11.366;2024-03-22T05:46:33;5.50;99.90
8043;DHT22;4064;48.132;11.366;2024-03-22T05:48:58;5.60;99.90
8043;DHT22;4064;48.132;11.366;2024-03-22T05:51:25;5.60;99.90
8043;DHT22;4064;48.132;11.366;2024-03-22T05:53:50;5.70;99.90
8043;DHT22;4064;48.132;11.366;2024-03-22T05:56:16;5.70;99.90
8043;DHT22;4064;48.132;11.366;2024-03-22T05:58:42;5.80;99.90
8043;DHT22;4064;48.132;11.366;2024-03-22T06:01:07;5.80;99.90
8043;DHT22;4064;48.132;11.366;2024-03-22T06:03:33;5.80;99.90
8043;DHT22;4064;48.132;11.366;2024-03-22T06:05:59;5.90;99.90
8043;DHT22;4064;48.132;11.366;2024-03-22T06:08:28;5.90;99.90
8043;DHT22;4064;48.132;11.366;2024-03-22T06:10:55;5.90;99.90
8043;DHT22;4064;48.132;11.366;2024-03-22T06:13:24;5.90;99.90
8043;DHT22;4064;48.132;11.366;2024-03-22T06:15:49;6.00;99.90
8043;DHT22;4064;48.132;11.366;2024-03-22T06:18:15;6.00;99.90
8043;DHT22;4064;48.132;11.366;2024-03-22T06:20:41;6.00;99.90
8043;DHT22;4064;48.132;11.366;2024-03-22T06:23:08;6.10;99.90
8043;DHT22;4064;48.132;11.366;2024-03-22T06:25:33;6.30;99.90
8043;DHT22;4064;48.132;11.366;2024-03-22T06:27:59;7.00;99.90
8043;DHT22;4064;48.132;11.366;2024-03-22T06:30:25;8.90;99.90
8043;DHT22;4064;48.132;11.366;2024-03-22T06:32:50;10.50;99.90
8043;DHT22;4064;48.132;11.366;2024-03-22T06:35:16;11.90;99.90
8043;DHT22;4064;48.132;11.366;2024-03-22T06:37:42;12.10;99.90
8043;DHT22;4064;48.132;11.366;2024-03-22T06:40:08;12.30;99.90
8043;DHT22;4064;48.132;11.366;2024-03-22T06:42:33;13.30;99.90
8043;DHT22;4064;48.132;11.366;2024-03-22T06:44:59;13.70;99.90
8043;DHT22;4064;48.132;11.366;2024-03-22T06:47:24;14.10;99.90
8043;DHT22;4064;48.132;11.366;2024-03-22T06:49:50;13.90;99.90
8043;DHT22;4064;48.132;11.366;2024-03-22T06:52:16;14.30;99.90
8043;DHT22;4064;48.132;11.366;2024-03-22T06:54:43;14.40;99.90
8043;DHT22;4064;48.132;11.366;2024-03-22T06:57:09;14.50;99.90
8043;DHT22;4064;48.132;11.366;2024-03-22T06:59:34;14.70;99.90
8043;DHT22;4064;48.132;11.366;2024-03-22T07:02:00;14.60;99.90
8043;DHT22;4064;48.132;11.366;2024-03-22T07:04:25;13.80;99.90
8043;DHT22;4064;48.132;11.366;2024-03-22T07:06:51;14.00;99.90
8043;DHT22;4064;48.132;11.366;2024-03-22T07:09:17;14.60;99.90
8043;DHT22;4064;48.132;11.366;2024-03-22T07:11:42;14.70;99.90
8043;DHT22;4064;48.132;11.366;2024-03-22T07:14:08;14.90;99.90
8043;DHT22;4064;48.132;11.366;2024-03-22T07:16:34;16.00;99.90
8043;DHT22;4064;48.132;11.366;2024-03-22T07:18:59;16.60;99.90
8043;DHT22;4064;48.132;11.366;2024-03-22T07:21:25;17.30;99.90
8043;DHT22;4064;48.132;11.366;2024-03-22T07:23:50;17.30;99.90
8043;DHT22;4064;48.132;11.366;2024-03-22T07:26:16;17.80;99.90
8043;DHT22;4064;48.132;11.366;2024-03-22T07:28:41;17.70;99.90
8043;DHT22;4064;48.132;11.366;2024-03-22T07:31:07;18.60;99.90
8043;DHT22;4064;48.132;11.366;2024-03-22T07:33:33;18.10;99.90
8043;DHT22;4064;48.132;11.366;2024-03-22T07:36:02;18.40;99.90
8043;DHT22;4064;48.132;11.366;2024-03-22T07:38:28;18.90;99.90
8043;DHT22;4064;48.132;11.366;2024-03-22T07:40:54;18.90;99.90
8043;DHT22;4064;48.132;11.366;2024-03-22T07:43:19;19.50;99.60
8043;DHT22;4064;48.132;11.366;2024-03-22T07:45:45;19.00;97.30
8043;DHT22;4064;48.132;11.366;2024-03-22T07:48:11;19.20;96.30
8043;DHT22;4064;48.132;11.366;2024-03-22T07:50:36;19.90;96.10
8043;DHT22;4064;48.132;11.366;2024-03-22T07:53:02;19.70;95.40
8043;DHT22;4064;48.132;11.366;2024-03-22T07:55:28;19.60;96.60
8043;DHT22;4064;48.132;11.366;2024-03-22T07:57:53;19.20;92.90
8043;DHT22;4064;48.132;11.366;2024-03-22T08:00:19;20.20;93.60
8043;DHT22;4064;48.132;11.366;2024-03-22T08:02:45;21.00;91.60
8043;DHT22;4064;48.132;11.366;2024-03-22T08:05:10;21.30;91.80
8043;DHT22;4064;48.132;11.366;2024-03-22T08:07:36;21.00;90.50
8043;DHT22;4064;48.132;11.366;2024-03-22T08:10:02;20.60;90.20
8043;DHT22;4064;48.132;11.366;2024-03-22T08:12:29;19.70;91.70
8043;DHT22;4064;48.132;11.366;2024-03-22T08:14:55;19.40;91.00
8043;DHT22;4064;48.132;11.366;2024-03-22T08:17:21;19.70;91.40
8043;DHT22;4064;48.132;11.366;2024-03-22T08:19:46;20.50;91.50
8043;DHT22;4064;48.132;11.366;2024-03-22T08:22:12;21.20;90.60
8043;DHT22;4064;48.132;11.366;2024-03-22T08:24:38;20.10;89.20
8043;DHT22;4064;48.132;11.366;2024-03-22T08:27:04;19.60;91.80
8043;DHT22;4064;48.132;11.366;2024-03-22T08:29:29;20.30;90.30
8043;DHT22;4064;48.132;11.366;2024-03-22T08:31:55;20.20;90.10
8043;DHT22;4064;48.132;11.366;2024-03-22T08:34:21;19.90;90.00
8043;DHT22;4064;48.132;11.366;2024-03-22T08:36:47;19.10;91.30
8043;DHT22;4064;48.132;11.366;2024-03-22T08:39:13;18.60;91.90
8043;DHT22;4064;48.132;11.366;2024-03-22T08:41:38;18.10;92.30
8043;DHT22;4064;48.132;11.366;2024-03-22T08:44:04;17.90;94.00
8043;DHT22;4064;48.132;11.366;2024-03-22T08:46:30;17.90;93.70
8043;DHT22;4064;48.132;11.366;2024-03-22T08:48:57;18.00;93.80
8043;DHT22;4064;48.132;11.366;2024-03-22T08:51:23;17.80;93.60
8043;DHT22;4064;48.132;11.366;2024-03-22T08:53:48;17.40;93.00
8043;DHT22;4064;48.132;11.366;2024-03-22T08:56:14;17.40;94.30
8043;DHT22;4064;48.132;11.366;2024-03-22T08:58:39;17.10;94.80
8043;DHT22;4064;48.132;11.366;2024-03-22T09:01:06;17.60;95.20
8043;DHT22;4064;48.132;11.366;2024-03-22T09:03:31;19.20;94.20
8043;DHT22;4064;48.132;11.366;2024-03-22T09:05:57;20.00;91.80
8043;DHT22;4064;48.132;11.366;2024-03-22T09:08:23;19.90;91.10
8043;DHT22;4064;48.132;11.366;2024-03-22T09:10:48;20.00;91.80
8043;DHT22;4064;48.132;11.366;2024-03-22T09:13:14;19.40;91.90
8043;DHT22;4064;48.132;11.366;2024-03-22T09:15:40;18.50;91.40
8043;DHT22;4064;48.132;11.366;2024-03-22T09:18:05;18.30;93.30
8043;DHT22;4064;48.132;11.366;2024-03-22T09:20:31;18.40;93.80
8043;DHT22;4064;48.132;11.366;2024-03-22T09:22:57;18.30;93.90
8043;DHT22;4064;48.132;11.366;2024-03-22T09:25:27;18.30;93.60
8043;DHT22;4064;48.132;11.366;2024-03-22T09:27:52;18.80;93.90
8043;DHT22;4064;48.132;11.366;2024-03-22T09:30:18;19.60;92.90
8043;DHT22;4064;48.132;11.366;2024-03-22T09:32:44;20.00;92.60
8043;DHT22;4064;48.132;11.366;2024-03-22T09:35:10;20.30;93.70
8043;DHT22;4064;48.132;11.366;2024-03-22T09:37:37;20.30;91.70
8043;DHT22;4064;48.132;11.366;2024-03-22T09:40:05;19.90;90.20
8043;DHT22;4064;48.132;11.366;2024-03-22T09:42:33;19.70;91.60
8043;DHT22;4064;48.132;11.366;2024-03-22T09:44:58;20.00;92.40
8043;DHT22;4064;48.132;11.366;2024-03-22T09:47:25;19.80;93.10
8043;DHT22;4064;48.132;11.366;2024-03-22T09:49:52;20.00;91.90
8043;DHT22;4064;48.132;11.366;2024-03-22T09:52:20;19.80;91.90
8043;DHT22;4064;48.132;11.366;2024-03-22T09:54:48;20.60;93.20
8043;DHT22;4064;48.132;11.366;2024-03-22T09:57:15;21.00;90.70
8043;DHT22;4064;48.132;11.366;2024-03-22T09:59:44;21.30;90.60
8043;DHT22;4064;48.132;11.366;2024-03-22T10:02:12;21.50;88.80
8043;DHT22;4064;48.132;11.366;2024-03-22T10:04:38;21.50;89.60
8043;DHT22;4064;48.132;11.366;2024-03-22T10:07:04;21.60;88.30
8043;DHT22;4064;48.132;11.366;2024-03-22T10:09:30;21.90;86.20
8043;DHT22;4064;48.132;11.366;2024-03-22T10:11:57;21.60;86.40
8043;DHT22;4064;48.132;11.366;2024-03-22T10:14:23;21.20;87.50
8043;DHT22;4064;48.132;11.366;2024-03-22T10:16:52;21.30;87.50
8043;DHT22;4064;48.132;11.366;2024-03-22T10:19:21;21.10;86.60
8043;DHT22;4064;48.132;11.366;2024-03-22T10:22:00;20.70;89.10
8043;DHT22;4064;48.132;11.366;2024-03-22T10:24:26;20.60;90.50
8043;DHT22;4064;48.132;11.366;2024-03-22T10:26:51;20.20;87.50
8043;DHT22;4064;48.132;11.366;2024-03-22T10:36:56;19.80;90.10
8043;DHT22;4064;48.132;11.366;2024-03-22T10:39:26;19.80;91.20
8043;DHT22;4064;48.132;11.366;2024-03-22T10:41:52;20.10;90.60
8043;DHT22;4064;48.132;11.366;2024-03-22T10:44:18;20.30;91.10
8043;DHT22;4064;48.132;11.366;2024-03-22T10:46:48;20.30;89.80
8043;DHT22;4064;48.132;11.366;2024-03-22T10:49:21;20.30;90.30
8043;DHT22;4064;48.132;11.366;2024-03-22T10:51:56;20.10;90.00
8043;DHT22;4064;48.132;11.366;2024-03-22T10:54:30;20.40;90.80
8043;DHT22;4064;48.132;11.366;2024-03-22T10:56:57;20.70;90.80
8043;DHT22;4064;48.132;11.366;2024-03-22T10:59:23;20.50;91.00
8043;DHT22;4064;48.132;11.366;2024-03-22T11:01:50;20.50;90.80
8043;DHT22;4064;48.132;11.366;2024-03-22T11:04:45;19.80;90.20
8043;DHT22;4064;48.132;11.366;2024-03-22T11:07:21;19.80;90.60
8043;DHT22;4064;48.132;11.366;2024-03-22T11:09:52;19.70;91.70
8043;DHT22;4064;48.132;11.366;2024-03-22T11:12:18;19.60;90.30
8043;DHT22;4064;48.132;11.366;2024-03-22T11:14:45;19.10;91.00
8043;DHT22;4064;48.132;11.366;2024-03-22T11:17:12;18.80;90.20
8043;DHT22;4064;48.132;11.366;2024-03-22T11:19:38;18.70;91.40
8043;DHT22;4064;48.132;11.366;2024-03-22T11:22:07;19.10;92.20
8043;DHT22;4064;48.132;11.366;2024-03-22T11:24:33;19.20;92.10
8043;DHT22;4064;48.132;11.366;2024-03-22T11:26:59;19.00;91.50
8043;DHT22;4064;48.132;11.366;2024-03-22T11:29:26;19.00;91.90
8043;DHT22;4064;48.132;11.366;2024-03-22T11:32:07;18.60;91.50
8043;DHT22;4064;48.132;11.366;2024-03-22T11:34:43;18.80;91.00
8043;DHT22;4064;48.132;11.366;2024-03-22T11:37:09;19.20;92.60
8043;DHT22;4064;48.132;11.366;2024-03-22T11:39:38;19.70;91.90
8043;DHT22;4064;48.132;11.366;2024-03-22T11:42:05;19.40;91.10
8043;DHT22;4064;48.132;11.366;2024-03-22T11:44:33;19.30;91.70
8043;DHT22;4064;48.132;11.366;2024-03-22T11:46:59;19.20;92.30
8043;DHT22;4064;48.132;11.366;2024-03-22T11:49:26;19.10;91.70
8043;DHT22;4064;48.132;11.366;2024-03-22T11:51:52;19.50;91.50
8043;DHT22;4064;48.132;11.366;2024-03-22T11:54:21;19.50;91.20
8043;DHT22;4064;48.132;11.366;2024-03-22T11:56:46;19.40;90.90
8043;DHT22;4064;48.132;11.366;2024-03-22T11:59:12;19.60;90.80
8043;DHT22;4064;48.132;11.366;2024-03-22T12:01:38;19.30;91.40
8043;DHT22;4064;48.132;11.366;2024-03-22T12:04:04;19.10;90.70
8043;DHT22;4064;48.132;11.366;2024-03-22T12:06:34;19.10;91.40
8043;DHT22;4064;48.132;11.366;2024-03-22T12:09:00;19.00;91.50
8043;DHT22;4064;48.132;11.366;2024-03-22T12:11:26;19.00;91.30
8043;DHT22;4064;48.132;11.366;2024-03-22T12:13:51;19.10;91.90
8043;DHT22;4064;48.132;11.366;2024-03-22T12:16:17;19.10;90.90
8043;DHT22;4064;48.132;11.366;2024-03-22T12:18:43;19.20;91.80
8043;DHT22;4064;48.132;11.366;2024-03-22T12:21:09;19.20;91.90
8043;DHT22;4064;48.132;11.366;2024-03-22T12:23:35;19.10;91.20
8043;DHT22;4064;48.132;11.366;2024-03-22T12:26:00;18.60;91.30
8043;DHT22;4064;48.132;11.366;2024-03-22T12:28:26;18.80;91.70
8043;DHT22;4064;48.132;11.366;2024-03-22T12:30:52;19.00;92.90
8043;DHT22;4064;48.132;11.366;2024-03-22T12:33:17;18.90;91.70
8043;DHT22;4064;48.132;11.366;2024-03-22T12:35:43;18.90;92.50
8043;DHT22;4064;48.132;11.366;2024-03-22T12:38:09;18.70;92.70
8043;DHT22;4064;48.132;11.366;2024-03-22T12:40:37;19.00;91.30
8043;DHT22;4064;48.132;11.366;2024-03-22T12:43:04;18.90;91.60
8043;DHT22;4064;48.132;11.366;2024-03-22T12:45:29;18.80;90.30
8043;DHT22;4064;48.132;11.366;2024-03-22T12:47:55;19.00;90.40
8043;DHT22;4064;48.132;11.366;2024-03-22T12:50:21;19.10;91.10
8043;DHT22;4064;48.132;11.366;2024-03-22T12:52:47;19.10;91.60
8043;DHT22;4064;48.132;11.366;2024-03-22T12:55:12;19.30;91.00
8043;DHT22;4064;48.132;11.366;2024-03-22T12:57:38;19.60;91.10
8043;DHT22;4064;48.132;11.366;2024-03-22T13:00:06;19.80;90.10
8043;DHT22;4064;48.132;11.366;2024-03-22T13:02:39;20.00;90.90
8043;DHT22;4064;48.132;11.366;2024-03-22T13:05:06;19.80;89.20
8043;DHT22;4064;48.132;11.366;2024-03-22T13:07:32;19.60;89.40
8043;DHT22;4064;48.132;11.366;2024-03-22T13:09:57;19.70;88.50
8043;DHT22;4064;48.132;11.366;2024-03-22T13:12:26;19.70;87.40
8043;DHT22;4064;48.132;11.366;2024-03-22T13:14:52;19.40;90.70
8043;DHT22;4064;48.132;11.366;2024-03-22T13:17:17;19.30;87.80
8043;DHT22;4064;48.132;11.366;2024-03-22T13:19:43;19.60;90.00
8043;DHT22;4064;48.132;11.366;2024-03-22T13:22:09;19.90;89.40
8043;DHT22;4064;48.132;11.366;2024-03-22T13:24:35;19.80;87.40
8043;DHT22;4064;48.132;11.366;2024-03-22T13:27:01;19.90;90.90
8043;DHT22;4064;48.132;11.366;2024-03-22T13:29:28;19.90;88.90
8043;DHT22;4064;48.132;11.366;2024-03-22T13:31:54;19.40;89.70
8043;DHT22;4064;48.132;11.366;2024-03-22T13:34:20;19.30;87.20
8043;DHT22;4064;48.132;11.366;2024-03-22T13:36:46;19.60;90.30
8043;DHT22;4064;48.132;11.366;2024-03-22T13:39:12;19.70;86.50
8043;DHT22;4064;48.132;11.366;2024-03-22T13:41:41;19.50;86.80
8043;DHT22;4064;48.132;11.366;2024-03-22T13:44:07;19.80;90.00
8043;DHT22;4064;48.132;11.366;2024-03-22T13:46:34;19.50;89.20
8043;DHT22;4064;48.132;11.366;2024-03-22T13:49:03;19.60;90.70
8043;DHT22;4064;48.132;11.366;2024-03-22T13:51:30;20.00;88.10
8043;DHT22;4064;48.132;11.366;2024-03-22T13:53:57;20.30;87.40
8043;DHT22;4064;48.132;11.366;2024-03-22T13:56:22;20.20;87.10
8043;DHT22;4064;48.132;11.366;2024-03-22T13:58:48;20.20;89.60
8043;DHT22;4064;48.132;11.366;2024-03-22T14:01:14;20.30;89.10
8043;DHT22;4064;48.132;11.366;2024-03-22T14:03:40;20.00;88.00
8043;DHT22;4064;48.132;11.366;2024-03-22T14:06:06;19.70;88.50
8043;DHT22;4064;48.132;11.366;2024-03-22T14:08:32;19.90;88.30
8043;DHT22;4064;48.132;11.366;2024-03-22T14:10:57;20.00;90.00
8043;DHT22;4064;48.132;11.366;2024-03-22T14:13:23;20.50;86.20
8043;DHT22;4064;48.132;11.366;2024-03-22T14:15:49;20.40;84.50
8043;DHT22;4064;48.132;11.366;2024-03-22T14:18:14;20.60;75.10
8043;DHT22;4064;48.132;11.366;2024-03-22T14:20:40;20.50;76.60
8043;DHT22;4064;48.132;11.366;2024-03-22T14:23:07;20.50;72.90
8043;DHT22;4064;48.132;11.366;2024-03-22T14:25:32;20.60;71.70
8043;DHT22;4064;48.132;11.366;2024-03-22T14:27:58;20.40;71.30
8043;DHT22;4064;48.132;11.366;2024-03-22T14:30:24;20.10;71.30
8043;DHT22;4064;48.132;11.366;2024-03-22T14:32:50;20.00;71.60
8043;DHT22;4064;48.132;11.366;2024-03-22T14:35:16;19.50;72.10
8043;DHT22;4064;48.132;11.366;2024-03-22T14:37:42;19.30;72.70
8043;DHT22;4064;48.132;11.366;2024-03-22T14:40:08;19.20;73.90
8043;DHT22;4064;48.132;11.366;2024-03-22T14:42:39;19.00;72.10
8043;DHT22;4064;48.132;11.366;2024-03-22T14:45:05;18.80;74.90
8043;DHT22;4064;48.132;11.366;2024-03-22T14:47:30;18.90;77.90
8043;DHT22;4064;48.132;11.366;2024-03-22T14:49:56;18.90;75.60
8043;DHT22;4064;48.132;11.366;2024-03-22T14:52:22;18.90;73.00
8043;DHT22;4064;48.132;11.366;2024-03-22T14:54:48;18.70;74.20
8043;DHT22;4064;48.132;11.366;2024-03-22T14:57:16;18.70;74.00
8043;DHT22;4064;48.132;11.366;2024-03-22T14:59:42;18.80;76.90
8043;DHT22;4064;48.132;11.366;2024-03-22T15:02:07;18.70;75.30
8043;DHT22;4064;48.132;11.366;2024-03-22T15:04:34;18.70;73.10
8043;DHT22;4064;48.132;11.366;2024-03-22T15:06:59;18.80;71.80
8043;DHT22;4064;48.132;11.366;2024-03-22T15:09:25;18.90;73.50
8043;DHT22;4064;48.132;11.366;2024-03-22T15:11:50;18.90;71.60
8043;DHT22;4064;48.132;11.366;2024-03-22T15:14:16;18.90;69.60
8043;DHT22;4064;48.132;11.366;2024-03-22T15:16:42;18.90;70.60
8043;DHT22;4064;48.132;11.366;2024-03-22T15:19:08;18.90;71.10
8043;DHT22;4064;48.132;11.366;2024-03-22T15:21:36;18.70;63.20
8043;DHT22;4064;48.132;11.366;2024-03-22T15:24:01;18.70;68.20
8043;DHT22;4064;48.132;11.366;2024-03-22T15:26:27;18.80;67.00
8043;DHT22;4064;48.132;11.366;2024-03-22T15:28:53;18.80;67.30
8043;DHT22;4064;48.132;11.366;2024-03-22T15:31:19;18.60;60.70
8043;DHT22;4064;48.132;11.366;2024-03-22T15:33:44;18.40;60.20
8043;DHT22;4064;48.132;11.366;2024-03-22T15:36:10;18.40;59.10
8043;DHT22;4064;48.132;11.366;2024-03-22T15:38:36;18.20;54.90
8043;DHT22;4064;48.132;11.366;2024-03-22T15:41:01;18.00;57.40
8043;DHT22;4064;48.132;11.366;2024-03-22T15:43:27;18.00;57.10
8043;DHT22;4064;48.132;11.366;2024-03-22T15:45:53;18.10;56.60
8043;DHT22;4064;48.132;11.366;2024-03-22T15:48:19;18.20;59.20
8043;DHT22;4064;48.132;11.366;2024-03-22T15:50:47;18.20;57.20
8043;DHT22;4064;48.132;11.366;2024-03-22T15:53:13;18.20;55.20